sensor_id;sensor_type;location;lat;lon;timestamp;pressure;altitude;pressure_sealevel;temperature;humidity
29549;BME280;16487;53.094;8.800;2023-08-12T00:02:15;101678.00;;;22.54;100.00
29549;BME280;16487;53.094;8.800;2023-08-12T00:04:42;101671.69;;;22.44;100.00
29549;BME280;16487;53.094;8.800;2023-08-12T00:07:10;101652.59;;;22.45;100.00
29549;BME280;16487;53.094;8.800;2023-08-12T00:09:37;101649.69;;;22.39;100.00
29549;BME280;16487;53.094;8.800;2023-08-12T00:12:05;101628.94;;;22.28;100.00
29549;BME280;16487;53.094;8.800;2023-08-12T00:14:33;101612.06;;;22.19;100.00
29549;BME280;16487;53.094;8.800;2023-08-12T00:17:01;101585.88;;;22.04;100.00
29549;BME280;16487;53.094;8.800;2023-08-12T00:19:28;101560.22;;;21.93;100.00
29549;BME280;16487;53.094;8.800;2023-08-12T00:21:55;101511.41;;;21.89;100.00
29549;BME280;16487;53.094;8.800;2023-08-12T00:24:22;101457.06;;;21.76;100.00
29549;BME280;16487;53.094;8.800;2023-08-12T00:26:49;101399.81;;;21.77;100.00
29549;BME280;16487;53.094;8.800;2023-08-12T00:29:16;101364.50;;;21.78;100.00
29549;BME280;16487;53.094;8.800;2023-08-12T00:31:45;101291.69;;;21.70;100.00
29549;BME280;16487;53.094;8.800;2023-08-12T00:34:12;101212.47;;;21.66;100.00
29549;BME280;16487;53.094;8.800;2023-08-12T00:36:39;101141.22;;;21.53;100.00
29549;BME280;16487;53.094;8.800;2023-08-12T00:39:07;101056.13;;;21.53;100.00
29549;BME280;16487;53.094;8.800;2023-08-12T00:41:34;100983.94;;;21.54;100.00
29549;BME280;16487;53.094;8.800;2023-08-12T00:44:02;100906.03;;;21.44;100.00
29549;BME280;16487;53.094;8.800;2023-08-12T00:46:29;100820.44;;;21.40;100.00
29549;BME280;16487;53.094;8.800;2023-08-12T00:48:58;100791.03;;;21.43;100.00
29549;BME280;16487;53.094;8.800;2023-08-12T00:51:25;100752.88;;;21.44;100.00
29549;BME280;16487;53.094;8.800;2023-08-12T00:53:53;100723.22;;;21.50;100.00
29549;BME280;16487;53.094;8.800;2023-08-12T00:56:21;100722.44;;;21.50;100.00
29549;BME280;16487;53.094;8.800;2023-08-12T00:58:48;100716.19;;;21.68;100.00
29549;BME280;16487;53.094;8.800;2023-08-12T01:01:15;100747.91;;;21.67;100.00
29549;BME280;16487;53.094;8.800;2023-08-12T01:03:43;100756.69;;;21.69;100.00
29549;BME280;16487;53.094;8.800;2023-08-12T01:06:12;100755.16;;;21.62;100.00
29549;BME280;16487;53.094;8.800;2023-08-12T01:08:39;100735.56;;;21.64;100.00
29549;BME280;16487;53.094;8.800;2023-08-12T01:11:13;100725.00;;;21.59;100.00
29549;BME280;16487;53.094;8.800;2023-08-12T01:13:46;100725.75;;;21.71;100.00
29549;BME280;16487;53.094;8.800;2023-08-12T01:16:17;100740.44;;;21.69;100.00
29549;BME280;16487;53.094;8.800;2023-08-12T01:18:47;100737.88;;;21.71;100.00
29549;BME280;16487;53.094;8.800;2023-08-12T01:21:21;100753.84;;;21.63;100.00
29549;BME280;16487;53.094;8.800;2023-08-12T01:23:50;100739.41;;;21.72;100.00
29549;BME280;16487;53.094;8.800;2023-08-12T01:26:17;100718.81;;;21.66;100.00
29549;BME280;16487;53.094;8.800;2023-08-12T01:28:44;100704.91;;;21.57;100.00
29549;BME280;16487;53.094;8.800;2023-08-12T01:31:14;100682.47;;;21.48;100.00
29549;BME280;16487;53.094;8.800;2023-08-12T01:33:46;100673.97;;;21.48;100.00
29549;BME280;16487;53.094;8.800;2023-08-12T01:36:17;100642.75;;;21.53;100.00
29549;BME280;16487;53.094;8.800;2023-08-12T01:38:45;100614.13;;;21.57;100.00
29549;BME280;16487;53.094;8.800;2023-08-12T01:41:16;100615.19;;;21.54;100.00
29549;BME280;16487;53.094;8.800;2023-08-12T01:43:44;100612.09;;;21.52;100.00
29549;BME280;16487;53.094;8.800;2023-08-12T01:46:11;100586.56;;;21.52;100.00
29549;BME280;16487;53.094;8.800;2023-08-12T01:48:38;100580.63;;;21.50;100.00
29549;BME280;16487;53.094;8.800;2023-08-12T01:51:06;100571.59;;;21.51;100.00
29549;BME280;16487;53.094;8.800;2023-08-12T01:53:33;100567.50;;;21.47;100.00
29549;BME280;16487;53.094;8.800;2023-08-12T01:56:00;100550.16;;;21.56;100.00
29549;BME280;16487;53.094;8.800;2023-08-12T01:58:29;100544.03;;;21.52;100.00
29549;BME280;16487;53.094;8.800;2023-08-12T02:00:56;100525.44;;;21.51;100.00
29549;BME280;16487;53.094;8.800;2023-08-12T02:03:23;100477.06;;;21.38;100.00
29549;BME280;16487;53.094;8.800;2023-08-12T02:05:51;100412.66;;;21.33;100.00
29549;BME280;16487;53.094;8.800;2023-08-12T02:08:18;100343.09;;;21.26;100.00
29549;BME280;16487;53.094;8.800;2023-08-12T02:10:45;100274.06;;;21.24;100.00
29549;BME280;16487;53.094;8.800;2023-08-12T02:13:12;100235.44;;;21.21;100.00
29549;BME280;16487;53.094;8.800;2023-08-12T02:15:40;100200.47;;;21.13;100.00
29549;BME280;16487;53.094;8.800;2023-08-12T02:18:12;100146.16;;;21.09;100.00
29549;BME280;16487;53.094;8.800;2023-08-12T02:20:40;100107.47;;;21.11;100.00
29549;BME280;16487;53.094;8.800;2023-08-12T02:23:07;100078.31;;;21.16;100.00
29549;BME280;16487;53.094;8.800;2023-08-12T02:25:34;100063.69;;;21.12;100.00
29549;BME280;16487;53.094;8.800;2023-08-12T02:28:01;100045.59;;;21.15;100.00
29549;BME280;16487;53.094;8.800;2023-08-12T02:30:29;100032.41;;;21.18;100.00
29549;BME280;16487;53.094;8.800;2023-08-12T02:32:57;100016.97;;;21.19;100.00
29549;BME280;16487;53.094;8.800;2023-08-12T02:35:25;100016.78;;;21.11;100.00
29549;BME280;16487;53.094;8.800;2023-08-12T02:37:52;100022.94;;;21.15;100.00
29549;BME280;16487;53.094;8.800;2023-08-12T02:40:19;99995.06;;;21.19;100.00
29549;BME280;16487;53.094;8.800;2023-08-12T02:42:47;99996.03;;;21.22;100.00
29549;BME280;16487;53.094;8.800;2023-08-12T02:45:14;99997.97;;;21.14;100.00
29549;BME280;16487;53.094;8.800;2023-08-12T02:47:41;99979.81;;;21.04;100.00
29549;BME280;16487;53.094;8.800;2023-08-12T02:50:10;99939.22;;;20.90;100.00
29549;BME280;16487;53.094;8.800;2023-08-12T02:52:37;99895.09;;;20.76;100.00
29549;BME280;16487;53.094;8.800;2023-08-12T02:55:04;99878.13;;;20.76;100.00
29549;BME280;16487;53.094;8.800;2023-08-12T02:57:31;99881.59;;;20.88;100.00
29549;BME280;16487;53.094;8.800;2023-08-12T02:59:58;99879.53;;;20.88;100.00
29549;BME280;16487;53.094;8.800;2023-08-12T03:02:25;99883.19;;;20.83;100.00
29549;BME280;16487;53.094;8.800;2023-08-12T03:04:53;99906.13;;;20.80;100.00
29549;BME280;16487;53.094;8.800;2023-08-12T03:07:21;99915.41;;;20.80;100.00
29549;BME280;16487;53.094;8.800;2023-08-12T03:09:49;99933.72;;;20.79;100.00
29549;BME280;16487;53.094;8.800;2023-08-12T03:12:16;99948.06;;;20.63;100.00
29549;BME280;16487;53.094;8.800;2023-08-12T03:14:43;99988.81;;;20.54;100.00
29549;BME280;16487;53.094;8.800;2023-08-12T03:17:10;100024.88;;;20.54;100.00
29549;BME280;16487;53.094;8.800;2023-08-12T03:19:38;100077.94;;;20.47;100.00
29549;BME280;16487;53.094;8.800;2023-08-12T03:22:06;100130.97;;;20.47;100.00
29549;BME280;16487;53.094;8.800;2023-08-12T03:24:35;100184.75;;;20.47;100.00
29549;BME280;16487;53.094;8.800;2023-08-12T03:27:03;100233.50;;;20.70;100.00
29549;BME280;16487;53.094;8.800;2023-08-12T03:29:31;100259.69;;;20.81;100.00
29549;BME280;16487;53.094;8.800;2023-08-12T03:32:03;100274.09;;;20.83;100.00
29549;BME280;16487;53.094;8.800;2023-08-12T03:34:30;100268.34;;;21.00;100.00
29549;BME280;16487;53.094;8.800;2023-08-12T03:36:58;100266.78;;;20.99;100.00
29549;BME280;16487;53.094;8.800;2023-08-12T03:39:25;100271.66;;;21.04;100.00
29549;BME280;16487;53.094;8.800;2023-08-12T03:41:54;100269.13;;;20.95;100.00
29549;BME280;16487;53.094;8.800;2023-08-12T03:44:21;100286.63;;;20.99;100.00
29549;BME280;16487;53.094;8.800;2023-08-12T03:46:48;100308.78;;;20.95;100.00
29549;BME280;16487;53.094;8.800;2023-08-12T03:49:16;100334.25;;;21.06;100.00
29549;BME280;16487;53.094;8.800;2023-08-12T03:51:47;100347.97;;;20.91;100.00
29549;BME280;16487;53.094;8.800;2023-08-12T03:54:14;100366.56;;;20.81;100.00
29549;BME280;16487;53.094;8.800;2023-08-12T03:56:41;100381.56;;;20.70;100.00
29549;BME280;16487;53.094;8.800;2023-08-12T03:59:10;100408.38;;;20.64;100.00
29549;BME280;16487;53.094;8.800;2023-08-12T04:01:37;100438.28;;;20.54;100.00
29549;BME280;16487;53.094;8.800;2023-08-12T04:04:05;100428.75;;;20.45;100.00
29549;BME280;16487;53.094;8.800;2023-08-12T04:06:32;100451.91;;;20.55;100.00
29549;BME280;16487;53.094;8.800;2023-08-12T04:08:59;100484.59;;;20.62;100.00
29549;BME280;16487;53.094;8.800;2023-08-12T04:11:26;100511.06;;;20.64;100.00
29549;BME280;16487;53.094;8.800;2023-08-12T04:13:53;100554.34;;;20.70;100.00
29549;BME280;16487;53.094;8.800;2023-08-12T04:16:22;100569.03;;;20.69;100.00
29549;BME280;16487;53.094;8.800;2023-08-12T04:18:49;100576.97;;;20.81;100.00
29549;BME280;16487;53.094;8.800;2023-08-12T04:21:16;100582.91;;;20.72;100.00
29549;BME280;16487;53.094;8.800;2023-08-12T04:23:43;100619.22;;;20.68;100.00
29549;BME280;16487;53.094;8.800;2023-08-12T04:26:11;100669.44;;;21.01;100.00
29549;BME280;16487;53.094;8.800;2023-08-12T04:28:38;100683.88;;;21.14;100.00
29549;BME280;16487;53.094;8.800;2023-08-12T04:31:06;100695.19;;;20.97;100.00
29549;BME280;16487;53.094;8.800;2023-08-12T04:33:35;100734.31;;;20.55;100.00
29549;BME280;16487;53.094;8.800;2023-08-12T04:36:03;100779.41;;;20.80;100.00
29549;BME280;16487;53.094;8.800;2023-08-12T04:38:30;100792.09;;;21.07;100.00
29549;BME280;16487;53.094;8.800;2023-08-12T04:40:59;100795.97;;;21.26;100.00
29549;BME280;16487;53.094;8.800;2023-08-12T04:43:27;100774.03;;;21.37;100.00
29549;BME280;16487;53.094;8.800;2023-08-12T04:45:54;100775.31;;;21.42;100.00
29549;BME280;16487;53.094;8.800;2023-08-12T04:48:22;100757.00;;;21.54;100.00
29549;BME280;16487;53.094;8.800;2023-08-12T04:50:51;100758.84;;;21.13;100.00
29549;BME280;16487;53.094;8.800;2023-08-12T04:53:18;100761.41;;;21.22;100.00
29549;BME280;16487;53.094;8.800;2023-08-12T04:55:49;100762.44;;;20.97;100.00
29549;BME280;16487;53.094;8.800;2023-08-12T04:58:17;100774.75;;;20.66;100.00
29549;BME280;16487;53.094;8.800;2023-08-12T05:00:44;100821.94;;;20.91;100.00
29549;BME280;16487;53.094;8.800;2023-08-12T05:03:11;100832.28;;;21.22;100.00
29549;BME280;16487;53.094;8.800;2023-08-12T05:05:38;100838.13;;;20.80;100.00
29549;BME280;16487;53.094;8.800;2023-08-12T05:08:08;100854.88;;;20.78;100.00
29549;BME280;16487;53.094;8.800;2023-08-12T05:10:36;100888.88;;;20.78;100.00
29549;BME280;16487;53.094;8.800;2023-08-12T05:13:03;100892.78;;;20.91;100.00
29549;BME280;16487;53.094;8.800;2023-08-12T05:15:30;100909.97;;;20.77;100.00
29549;BME280;16487;53.094;8.800;2023-08-12T05:17:58;100923.78;;;20.52;100.00
29549;BME280;16487;53.094;8.800;2023-08-12T05:20:27;100954.66;;;20.50;100.00
29549;BME280;16487;53.094;8.800;2023-08-12T05:22:55;100989.25;;;20.66;100.00
29549;BME280;16487;53.094;8.800;2023-08-12T05:25:23;100994.03;;;20.48;100.00
29549;BME280;16487;53.094;8.800;2023-08-12T05:27:50;101101.19;;;20.56;100.00
29549;BME280;16487;53.094;8.800;2023-08-12T05:30:18;101124.84;;;20.52;100.00
29549;BME280;16487;53.094;8.800;2023-08-12T05:32:45;101171.47;;;20.52;100.00
29549;BME280;16487;53.094;8.800;2023-08-12T05:35:12;101198.50;;;20.52;100.00
29549;BME280;16487;53.094;8.800;2023-08-12T05:37:41;101209.00;;;20.46;100.00
29549;BME280;16487;53.094;8.800;2023-08-12T05:40:09;101245.88;;;20.78;100.00
29549;BME280;16487;53.094;8.800;2023-08-12T05:42:37;101286.19;;;20.67;100.00
29549;BME280;16487;53.094;8.800;2023-08-12T05:45:05;101294.34;;;20.60;100.00
29549;BME280;16487;53.094;8.800;2023-08-12T05:47:36;101283.88;;;20.66;100.00
29549;BME280;16487;53.094;8.800;2023-08-12T05:50:04;101297.84;;;20.49;100.00
29549;BME280;16487;53.094;8.800;2023-08-12T05:52:31;101330.75;;;20.67;100.00
29549;BME280;16487;53.094;8.800;2023-08-12T05:54:59;101313.78;;;20.98;100.00
29549;BME280;16487;53.094;8.800;2023-08-12T05:57:26;101279.75;;;21.23;100.00
29549;BME280;16487;53.094;8.800;2023-08-12T05:59:58;101236.47;;;21.23;100.00
29549;BME280;16487;53.094;8.800;2023-08-12T06:02:25;101210.66;;;20.59;100.00
29549;BME280;16487;53.094;8.800;2023-08-12T06:04:52;101217.31;;;20.56;100.00
29549;BME280;16487;53.094;8.800;2023-08-12T06:07:19;101233.38;;;20.95;100.00
29549;BME280;16487;53.094;8.800;2023-08-12T06:09:47;101230.28;;;20.68;100.00
29549;BME280;16487;53.094;8.800;2023-08-12T06:12:14;101235.72;;;20.66;100.00
29549;BME280;16487;53.094;8.800;2023-08-12T06:14:41;101240.97;;;20.52;100.00
29549;BME280;16487;53.094;8.800;2023-08-12T06:17:10;101249.63;;;20.95;100.00
29549;BME280;16487;53.094;8.800;2023-08-12T06:19:37;101240.28;;;20.89;100.00
29549;BME280;16487;53.094;8.800;2023-08-12T06:22:04;101239.59;;;20.68;100.00
29549;BME280;16487;53.094;8.800;2023-08-12T06:24:31;101250.00;;;20.82;100.00
29549;BME280;16487;53.094;8.800;2023-08-12T06:27:00;101259.19;;;20.72;100.00
29549;BME280;16487;53.094;8.800;2023-08-12T06:29:27;101286.97;;;20.68;100.00
29549;BME280;16487;53.094;8.800;2023-08-12T06:31:54;101306.63;;;20.77;100.00
29549;BME280;16487;53.094;8.800;2023-08-12T06:34:23;101312.53;;;20.73;100.00
29549;BME280;16487;53.094;8.800;2023-08-12T06:36:50;101321.06;;;20.79;100.00
29549;BME280;16487;53.094;8.800;2023-08-12T06:39:18;101326.31;;;20.86;100.00
29549;BME280;16487;53.094;8.800;2023-08-12T06:41:46;101331.63;;;20.78;100.00
29549;BME280;16487;53.094;8.800;2023-08-12T06:44:14;101328.34;;;20.85;100.00
29549;BME280;16487;53.094;8.800;2023-08-12T06:46:42;101330.81;;;20.72;100.00
29549;BME280;16487;53.094;8.800;2023-08-12T06:49:12;101323.53;;;20.66;100.00
29549;BME280;16487;53.094;8.800;2023-08-12T06:51:41;101330.47;;;20.65;100.00
29549;BME280;16487;53.094;8.800;2023-08-12T06:54:08;101343.19;;;20.75;100.00
29549;BME280;16487;53.094;8.800;2023-08-12T06:56:35;101347.69;;;21.38;100.00
29549;BME280;16487;53.094;8.800;2023-08-12T06:59:02;101319.66;;;21.51;100.00
29549;BME280;16487;53.094;8.800;2023-08-12T07:01:29;101296.41;;;21.10;100.00
29549;BME280;16487;53.094;8.800;2023-08-12T07:03:57;101287.47;;;20.66;100.00
29549;BME280;16487;53.094;8.800;2023-08-12T07:06:24;101292.75;;;20.79;100.00
29549;BME280;16487;53.094;8.800;2023-08-12T07:08:52;101298.50;;;21.15;100.00
29549;BME280;16487;53.094;8.800;2023-08-12T07:11:20;101291.13;;;20.98;100.00
29549;BME280;16487;53.094;8.800;2023-08-12T07:13:47;101291.84;;;20.93;100.00
29549;BME280;16487;53.094;8.800;2023-08-12T07:16:14;101293.19;;;20.72;100.00
29549;BME280;16487;53.094;8.800;2023-08-12T07:18:41;101287.63;;;20.83;100.00
29549;BME280;16487;53.094;8.800;2023-08-12T07:21:10;101292.97;;;21.32;100.00
29549;BME280;16487;53.094;8.800;2023-08-12T07:23:37;101282.50;;;20.87;100.00
29549;BME280;16487;53.094;8.800;2023-08-12T07:26:12;101292.16;;;21.68;100.00
29549;BME280;16487;53.094;8.800;2023-08-12T07:28:40;101265.75;;;21.09;100.00
29549;BME280;16487;53.094;8.800;2023-08-12T07:31:08;101265.47;;;21.43;100.00
29549;BME280;16487;53.094;8.800;2023-08-12T07:33:42;101272.50;;;21.17;100.00
29549;BME280;16487;53.094;8.800;2023-08-12T07:36:09;101274.72;;;21.44;100.00
29549;BME280;16487;53.094;8.800;2023-08-12T07:38:37;101278.72;;;21.63;100.00
29549;BME280;16487;53.094;8.800;2023-08-12T07:41:04;101268.72;;;21.31;100.00
29549;BME280;16487;53.094;8.800;2023-08-12T07:43:33;101266.81;;;21.17;100.00
29549;BME280;16487;53.094;8.800;2023-08-12T07:46:00;101274.31;;;21.20;100.00
29549;BME280;16487;53.094;8.800;2023-08-12T07:48:36;101261.56;;;21.41;100.00
29549;BME280;16487;53.094;8.800;2023-08-12T07:51:03;101277.28;;;21.42;100.00
29549;BME280;16487;53.094;8.800;2023-08-12T07:53:31;101302.25;;;21.69;100.00
29549;BME280;16487;53.094;8.800;2023-08-12T07:55:58;101292.13;;;21.57;100.00
29549;BME280;16487;53.094;8.800;2023-08-12T07:58:25;101290.22;;;21.43;100.00
29549;BME280;16487;53.094;8.800;2023-08-12T08:00:54;101314.63;;;21.72;100.00
29549;BME280;16487;53.094;8.800;2023-08-12T08:03:22;101315.03;;;21.90;100.00
29549;BME280;16487;53.094;8.800;2023-08-12T08:05:49;101292.44;;;21.70;100.00
29549;BME280;16487;53.094;8.800;2023-08-12T08:08:16;101305.44;;;21.82;100.00
29549;BME280;16487;53.094;8.800;2023-08-12T08:10:43;101293.50;;;21.73;100.00
29549;BME280;16487;53.094;8.800;2023-08-12T08:13:10;101296.91;;;21.82;100.00
29549;BME280;16487;53.094;8.800;2023-08-12T08:15:38;101273.75;;;21.47;100.00
29549;BME280;16487;53.094;8.800;2023-08-12T08:18:06;101255.50;;;21.64;100.00
29549;BME280;16487;53.094;8.800;2023-08-12T08:20:35;101231.41;;;21.38;100.00
29549;BME280;16487;53.094;8.800;2023-08-12T08:23:03;101238.09;;;21.40;100.00
29549;BME280;16487;53.094;8.800;2023-08-12T08:25:31;101244.84;;;21.43;100.00
29549;BME280;16487;53.094;8.800;2023-08-12T08:27:58;101253.19;;;21.63;100.00
29549;BME280;16487;53.094;8.800;2023-08-12T08:30:25;101245.38;;;21.47;100.00
29549;BME280;16487;53.094;8.800;2023-08-12T08:32:52;101256.97;;;21.49;100.00
29549;BME280;16487;53.094;8.800;2023-08-12T08:35:21;101254.59;;;21.42;100.00
29549;BME280;16487;53.094;8.800;2023-08-12T08:37:49;101267.25;;;21.41;100.00
29549;BME280;16487;53.094;8.800;2023-08-12T08:40:16;101280.53;;;21.60;100.00
29549;BME280;16487;53.094;8.800;2023-08-12T08:42:47;101274.78;;;21.49;100.00
29549;BME280;16487;53.094;8.800;2023-08-12T08:45:18;101282.50;;;21.49;100.00
29549;BME280;16487;53.094;8.800;2023-08-12T08:47:48;101298.72;;;21.43;100.00
29549;BME280;16487;53.094;8.800;2023-08-12T08:50:15;101310.19;;;21.28;100.00
29549;BME280;16487;53.094;8.800;2023-08-12T08:52:44;101325.94;;;21.29;100.00
29549;BME280;16487;53.094;8.800;2023-08-12T08:55:12;101340.59;;;21.22;100.00
29549;BME280;16487;53.094;8.800;2023-08-12T08:57:40;101342.13;;;21.23;100.00
29549;BME280;16487;53.094;8.800;2023-08-12T09:00:15;101362.19;;;21.20;100.00
29549;BME280;16487;53.094;8.800;2023-08-12T09:02:46;101391.19;;;21.29;100.00
29549;BME280;16487;53.094;8.800;2023-08-12T09:05:15;101415.91;;;21.29;100.00
29549;BME280;16487;53.094;8.800;2023-08-12T09:07:44;101429.38;;;21.34;100.00
29549;BME280;16487;53.094;8.800;2023-08-12T09:10:12;101437.38;;;21.35;100.00
29549;BME280;16487;53.094;8.800;2023-08-12T09:12:42;101445.66;;;21.39;100.00
29549;BME280;16487;53.094;8.800;2023-08-12T09:15:11;101453.53;;;21.55;100.00
29549;BME280;16487;53.094;8.800;2023-08-12T09:17:38;101451.50;;;21.30;100.00
29549;BME280;16487;53.094;8.800;2023-08-12T09:20:06;101455.50;;;21.43;100.00
29549;BME280;16487;53.094;8.800;2023-08-12T09:22:33;101470.47;;;21.70;100.00
29549;BME280;16487;53.094;8.800;2023-08-12T09:25:03;101457.63;;;21.48;100.00
29549;BME280;16487;53.094;8.800;2023-08-12T09:27:30;101474.72;;;21.59;100.00
29549;BME280;16487;53.094;8.800;2023-08-12T09:29:58;101478.53;;;21.51;100.00
29549;BME280;16487;53.094;8.800;2023-08-12T09:32:25;101478.31;;;21.29;100.00
29549;BME280;16487;53.094;8.800;2023-08-12T09:34:53;101502.59;;;21.35;100.00
29549;BME280;16487;53.094;8.800;2023-08-12T09:37:23;101500.03;;;21.63;100.00
29549;BME280;16487;53.094;8.800;2023-08-12T09:39:51;101491.88;;;21.45;100.00
29549;BME280;16487;53.094;8.800;2023-08-12T09:42:20;101493.44;;;21.46;100.00
29549;BME280;16487;53.094;8.800;2023-08-12T09:44:47;101490.88;;;21.48;100.00
29549;BME280;16487;53.094;8.800;2023-08-12T09:47:14;101493.59;;;21.37;100.00
29549;BME280;16487;53.094;8.800;2023-08-12T09:49:42;101493.34;;;21.35;100.00
29549;BME280;16487;53.094;8.800;2023-08-12T09:52:09;101492.53;;;21.60;100.00
29549;BME280;16487;53.094;8.800;2023-08-12T09:54:37;101469.50;;;21.52;100.00
29549;BME280;16487;53.094;8.800;2023-08-12T09:57:07;101470.91;;;21.37;100.00
29549;BME280;16487;53.094;8.800;2023-08-12T09:59:37;101482.75;;;21.35;100.00
29549;BME280;16487;53.094;8.800;2023-08-12T10:02:05;101497.41;;;21.54;100.00
29549;BME280;16487;53.094;8.800;2023-08-12T10:04:37;101497.84;;;22.04;100.00
29549;BME280;16487;53.094;8.800;2023-08-12T10:07:04;101466.50;;;21.61;100.00
29549;BME280;16487;53.094;8.800;2023-08-12T10:09:32;101476.75;;;21.79;100.00
29549;BME280;16487;53.094;8.800;2023-08-12T10:12:00;101465.22;;;21.37;100.00
29549;BME280;16487;53.094;8.800;2023-08-12T10:14:28;101487.09;;;21.31;100.00
29549;BME280;16487;53.094;8.800;2023-08-12T10:16:58;101507.44;;;21.55;100.00
29549;BME280;16487;53.094;8.800;2023-08-12T10:19:33;101536.41;;;21.39;100.00
29549;BME280;16487;53.094;8.800;2023-08-12T10:22:02;101564.69;;;21.53;100.00
29549;BME280;16487;53.094;8.800;2023-08-12T10:24:30;101598.19;;;21.95;100.00
29549;BME280;16487;53.094;8.800;2023-08-12T10:26:58;101572.91;;;21.97;100.00
29549;BME280;16487;53.094;8.800;2023-08-12T10:29:25;101560.63;;;22.11;100.00
29549;BME280;16487;53.094;8.800;2023-08-12T10:31:53;101549.41;;;21.71;100.00
29549;BME280;16487;53.094;8.800;2023-08-12T10:34:22;101558.59;;;21.60;100.00
29549;BME280;16487;53.094;8.800;2023-08-12T10:36:54;101559.69;;;21.43;100.00
29549;BME280;16487;53.094;8.800;2023-08-12T10:39:31;101574.88;;;21.40;100.00
29549;BME280;16487;53.094;8.800;2023-08-12T10:41:59;101603.22;;;21.40;100.00
29549;BME280;16487;53.094;8.800;2023-08-12T10:44:38;101627.69;;;21.37;100.00
29549;BME280;16487;53.094;8.800;2023-08-12T10:47:07;101622.38;;;21.45;100.00
29549;BME280;16487;53.094;8.800;2023-08-12T10:49:42;101618.94;;;21.61;100.00
29549;BME280;16487;53.094;8.800;2023-08-12T10:52:26;101628.88;;;21.71;100.00
29549;BME280;16487;53.094;8.800;2023-08-12T10:54:53;101625.31;;;21.76;100.00
29549;BME280;16487;53.094;8.800;2023-08-12T10:57:34;101611.72;;;22.11;100.00
29549;BME280;16487;53.094;8.800;2023-08-12T11:00:03;101590.41;;;22.21;100.00
29549;BME280;16487;53.094;8.800;2023-08-12T11:02:31;101572.44;;;22.35;100.00
29549;BME280;16487;53.094;8.800;2023-08-12T11:05:02;101542.44;;;22.65;100.00
29549;BME280;16487;53.094;8.800;2023-08-12T11:07:34;101515.84;;;22.63;100.00
29549;BME280;16487;53.094;8.800;2023-08-12T11:10:05;101487.00;;;22.44;100.00
29549;BME280;16487;53.094;8.800;2023-08-12T11:12:36;101466.06;;;22.36;100.00
29549;BME280;16487;53.094;8.800;2023-08-12T11:15:04;101443.25;;;22.25;100.00
29549;BME280;16487;53.094;8.800;2023-08-12T11:17:35;101450.44;;;22.15;100.00
29549;BME280;16487;53.094;8.800;2023-08-12T11:20:06;101452.78;;;21.86;100.00
29549;BME280;16487;53.094;8.800;2023-08-12T11:22:36;101463.63;;;21.87;100.00
29549;BME280;16487;53.094;8.800;2023-08-12T11:25:06;101467.50;;;21.84;100.00
29549;BME280;16487;53.094;8.800;2023-08-12T11:27:40;101482.50;;;21.64;100.00
29549;BME280;16487;53.094;8.800;2023-08-12T11:30:08;101496.63;;;21.79;100.00
29549;BME280;16487;53.094;8.800;2023-08-12T11:32:37;101507.16;;;22.04;100.00
29549;BME280;16487;53.094;8.800;2023-08-12T11:35:08;101506.28;;;22.29;100.00
29549;BME280;16487;53.094;8.800;2023-08-12T11:37:35;101489.66;;;22.17;100.00
29549;BME280;16487;53.094;8.800;2023-08-12T11:40:04;101498.03;;;22.68;100.00
29549;BME280;16487;53.094;8.800;2023-08-12T11:42:31;101465.72;;;22.65;100.00
29549;BME280;16487;53.094;8.800;2023-08-12T11:44:59;101451.06;;;22.84;100.00
29549;BME280;16487;53.094;8.800;2023-08-12T11:47:26;101437.19;;;23.08;100.00
29549;BME280;16487;53.094;8.800;2023-08-12T11:49:53;101401.97;;;22.89;100.00
29549;BME280;16487;53.094;8.800;2023-08-12T11:52:22;101384.91;;;22.89;100.00
29549;BME280;16487;53.094;8.800;2023-08-12T11:54:50;101368.91;;;22.97;100.00
29549;BME280;16487;53.094;8.800;2023-08-12T11:57:18;101329.84;;;22.92;100.00
29549;BME280;16487;53.094;8.800;2023-08-12T11:59:45;101295.72;;;22.86;100.00
29549;BME280;16487;53.094;8.800;2023-08-12T12:02:12;101272.19;;;22.63;100.00
29549;BME280;16487;53.094;8.800;2023-08-12T12:04:41;101277.19;;;22.15;100.00
29549;BME280;16487;53.094;8.800;2023-08-12T12:07:19;101293.25;;;22.29;100.00
29549;BME280;16487;53.094;8.800;2023-08-12T12:09:50;101300.66;;;22.10;100.00
29549;BME280;16487;53.094;8.800;2023-08-12T12:12:17;101325.66;;;21.95;100.00
29549;BME280;16487;53.094;8.800;2023-08-12T12:14:46;101330.13;;;22.13;100.00
29549;BME280;16487;53.094;8.800;2023-08-12T12:17:14;101345.69;;;22.28;100.00
29549;BME280;16487;53.094;8.800;2023-08-12T12:19:41;101368.38;;;22.23;100.00
29549;BME280;16487;53.094;8.800;2023-08-12T12:22:09;101366.34;;;22.34;100.00
29549;BME280;16487;53.094;8.800;2023-08-12T12:24:48;101367.69;;;22.44;100.00
29549;BME280;16487;53.094;8.800;2023-08-12T12:27:15;101373.91;;;22.48;100.00
29549;BME280;16487;53.094;8.800;2023-08-12T12:29:42;101371.47;;;22.84;100.00
29549;BME280;16487;53.094;8.800;2023-08-12T12:32:10;101349.00;;;22.97;100.00
29549;BME280;16487;53.094;8.800;2023-08-12T12:34:38;101327.03;;;23.25;100.00
29549;BME280;16487;53.094;8.800;2023-08-12T12:37:05;101254.38;;;23.13;100.00
29549;BME280;16487;53.094;8.800;2023-08-12T12:39:32;101232.84;;;23.67;100.00
29549;BME280;16487;53.094;8.800;2023-08-12T12:42:00;101171.22;;;23.69;100.00
29549;BME280;16487;53.094;8.800;2023-08-12T12:44:28;101135.81;;;24.11;100.00
29549;BME280;16487;53.094;8.800;2023-08-12T12:46:55;101047.34;;;25.06;100.00